Airfield :
LOGIN :

Register | Disclaimer

   EN    FR    IT 

 










Legend :    VFR   Marginal VFR   IFR   Intensive IFR   Very Intensive IFR
Visi :
Ceiling :
>= 8 km
>= 3000ft
5 to 8 km
1000 to 3000 ft
1500m to 5 km
500 to 1000 ft
800 to 1500m
200 to 500 ft
< 800m
< 200 ft
Symbols :   Thunderstorms  Fog  Heavy snow  Heavy precipitations  Wind > 20 kt
SIGMETs :     Misc.  Thunderstorms  Icing  Turbulence  Mountain Waves  Volcanic Ashes






- Airport Elevation : 17 ft
- IATA code : GRS


LIRS - Grosseto

CURRENT METAR :
  • 282255Z 35002KT CAVOK 15/14 Q1014 RMK SKC VIS MIN 9999 WIND THR03 02003KT WIND THR21 02003KT BLU

EXPIRED METARs :
  • 282155Z 02004KT CAVOK 17/16 Q1014
  • 282055Z VRB01KT CAVOK 18/17 Q1013 RMK SKC VIS MIN 9999 WIND THR03 VRB01KT WIND THR21 03002KT BLU
  • 281955Z VRB02KT CAVOK 20/17 Q1013 RMK FEW FEW200 VIS MIN 9999 WIND THR03 VRB01KT WIND THR21 10001KT BLU
  • 281855Z 30004KT 9999 FEW018TCU 22/17 Q1013 RMK FEW VIS MIN 9999 WIND THR03 30003KT WIND THR21 31004KT BLU

TAF TAF LIRS
Valid from the 28 at 18:00 until the 29 at 03:00 UTC


281700Z 2818/2903 01006KT 9999 FEW020



MET'MAP, your aeronautical weather chart ! - Copyright ORBIFLY December 2007 - Disclaimer

ORBIFLY MET'MAP TEAM :

Programming & Development : Alexandra Zaïnal
Original concept : Baudouin d'Aumeries
Technical & hardware support : Manuel Goepfert
Assistance : Marc-Olivier Méhu




SOURCES & CREDITS :

   NOAA